Flight Track Log - Related Links

Times and Time Zones

All times are in EDT time to prevent confusion due to time zone crossing. See the N44EE flight status page for this flight to view local times or setup timezone preferences in your user account.

Time Position Orientation Groundspeed Altitude Reporting Facility
EDT Latitude Longitude Course Direction KTS MPH feet Rate Location/Type
Mon 03:40:20 PM 40.1247 -84.1456 174° South 133 153 3,700  Level Indianapolis Center
Mon 03:40:32 PM 40.1189 -84.1447 174° South 126 145 3,900 720 Climbing Indianapolis Center
Mon 03:40:45 PM 40.1075 -84.1481 193° South 135 155 4,000 581 Climbing Indianapolis Center
Mon 03:41:34 PM 40.0808 -84.1483 180° South 130 150 4,500 537 Climbing Indianapolis Center
Mon 03:41:52 PM 40.0653 -84.1514 189° South 137 158 4,600 387 Climbing Indianapolis Center
Mon 03:42:36 PM 40.0422 -84.1514 180° South 135 155 4,900 333 Climbing Indianapolis Center
Mon 03:42:46 PM 40.0314 -84.1536 189° South 136 157 4,900 476 Level Indianapolis Center
Mon 03:43:39 PM 40.0047 -84.1542 181° South 135 155 5,400 522 Climbing Indianapolis Center
Mon 03:44:41 PM 39.9628 -84.1569 183° South 134 154 5,900 387 Climbing Indianapolis Center
Mon 03:45:43 PM 39.9258 -84.1600 184° South 134 154 6,200 290 Climbing Indianapolis Center
Mon 03:46:45 PM 39.8864 -84.1631 183° South 134 154 6,500 242 Climbing Indianapolis Center
Mon 03:47:47 PM 39.8456 -84.1664 184° South 140 161 6,700 242 Climbing Indianapolis Center
Mon 03:48:49 PM 39.8044 -84.1683 182° South 143 165 7,000 339 Climbing Indianapolis Center
Mon 03:49:51 PM 39.7642 -84.1722 184° South 143 165 7,400 339 Climbing Indianapolis Center
Mon 03:50:53 PM 39.7164 -84.1772 185° South 144 166 7,700 242 Climbing Indianapolis Center
Mon 03:51:55 PM 39.6750 -84.1803 183° South 144 166 7,900 242 Climbing Indianapolis Center
Mon 03:52:57 PM 39.6336 -84.1831 183° South 145 167 8,200 290 Climbing Indianapolis Center
Mon 03:53:59 PM 39.5925 -84.1856 183° South 146 168 8,500 290 Climbing Indianapolis Center
Mon 03:55:01 PM 39.5514 -84.1889 184° South 147 169 8,800 290 Climbing Indianapolis Center
Mon 03:56:03 PM 39.5006 -84.1936 184° South 148 170 9,100 290 Climbing Indianapolis Center
Mon 03:57:05 PM 39.4603 -84.1967 183° South 148 170 9,400 242 Climbing Indianapolis Center
Mon 03:58:07 PM 39.4197 -84.1997 183° South 148 170 9,600 194 Climbing Indianapolis Center
Mon 03:59:09 PM 39.3783 -84.2039 184° South 148 170 9,800 194 Climbing Indianapolis Center
Mon 04:00:11 PM 39.3372 -84.2081 184° South 148 170 10,000 242 Climbing Indianapolis Center
Mon 04:01:13 PM 39.2967 -84.2117 184° South 148 170 10,300 242 Climbing Indianapolis Center
Mon 04:02:15 PM 39.2467 -84.2175 185° South 148 170 10,500 145 Climbing Indianapolis Center
Mon 04:03:17 PM 39.2036 -84.2208 183° South 153 176 10,600 145 Climbing Indianapolis Center
Mon 04:04:19 PM 39.1650 -84.2242 184° South 147 169 10,800 290 Climbing Indianapolis Center
Mon 04:05:21 PM 39.1283 -84.2297 187° South 137 158 11,200 387 Climbing Indianapolis Center
Mon 04:06:23 PM 39.0939 -84.2344 186° South 131 151 11,600 194 Climbing Indianapolis Center
Mon 04:07:25 PM 39.0578 -84.2389 185° South 127 146 11,600  Level Indianapolis Center
Mon 04:08:27 PM 39.0083 -84.2406 182° South 145 167 11,600  Level Indianapolis Center
Mon 04:09:29 PM 38.9683 -84.2144 153° Southeast 157 181 11,600  Level Indianapolis Center
Mon 04:10:31 PM 38.9286 -84.1914 156° South 157 181 11,600  Level Indianapolis Center
Mon 04:11:33 PM 38.8869 -84.1678 156° South 159 183 11,600 48 Level Indianapolis Center
Mon 04:12:35 PM 38.8450 -84.1422 155° Southeast 163 188 11,700  Climbing Indianapolis Center
Mon 04:13:37 PM 38.8028 -84.1197 157° South 164 189 11,600 -48 Descending Indianapolis Center
Mon 04:14:39 PM 38.7517 -84.0886 155° Southeast 165 190 11,600  Level Indianapolis Center
Mon 04:15:41 PM 38.7100 -84.0647 156° South 165 190 11,600  Level Indianapolis Center
Mon 04:16:43 PM 38.6681 -84.0442 159° South 165 190 11,600  Level Indianapolis Center
Mon 04:17:46 PM 38.6236 -84.0186 156° South 165 190 11,600  Level Indianapolis Center
Mon 04:18:48 PM 38.5819 -83.9942 155° Southeast 165 190 11,600  Level Indianapolis Center
Mon 04:19:50 PM 38.5397 -83.9697 156° South 165 190 11,600  Level Indianapolis Center
Mon 04:20:52 PM 38.4894 -83.9436 158° South 165 190 11,600  Level Indianapolis Center
Mon 04:21:54 PM 38.4478 -83.9178 154° Southeast 166 191 11,600  Level Indianapolis Center
Mon 04:22:56 PM 38.4047 -83.8939 156° South 166 191 11,600  Level Indianapolis Center
Mon 04:23:58 PM 38.3619 -83.8714 158° South 166 191 11,600  Level Indianapolis Center
Mon 04:25:01 PM 38.3197 -83.8467 155° Southeast 166 191 11,600  Level Indianapolis Center
Mon 04:26:03 PM 38.2775 -83.8222 156° South 166 191 11,600  Level Indianapolis Center
Mon 04:27:05 PM 38.2275 -83.7956 157° South 166 191 11,600  Level Indianapolis Center
Mon 04:28:07 PM 38.1864 -83.7708 155° Southeast 166 191 11,600  Level Indianapolis Center
Mon 04:29:09 PM 38.1447 -83.7494 158° South 165 190 11,600  Level Indianapolis Center
Mon 04:30:11 PM 38.1022 -83.7261 157° South 165 190 11,600  Level Indianapolis Center
Mon 04:31:13 PM 38.0603 -83.7019 156° South 165 190 11,600  Level Indianapolis Center
Mon 04:32:16 PM 38.0119 -83.6731 155° Southeast 165 190 11,600  Level Indianapolis Center
Mon 04:33:18 PM 37.9697 -83.6503 157° South 165 190 11,600  Level Indianapolis Center
Mon 04:34:20 PM 37.9283 -83.6283 157° South 165 190 11,600  Level Indianapolis Center
Mon 04:35:22 PM 37.8861 -83.6058 157° South 164 189 11,600  Level Indianapolis Center
Mon 04:36:24 PM 37.8436 -83.5822 156° South 164 189 11,600  Level Indianapolis Center
Mon 04:37:26 PM 37.7947 -83.5525 154° Southeast 165 190 11,600  Level Indianapolis Center
Mon 04:38:28 PM 37.7517 -83.5292 157° South 165 190 11,600  Level Indianapolis Center
Mon 04:39:30 PM 37.7092 -83.5056 156° South 165 190 11,600  Level Indianapolis Center
Mon 04:40:33 PM 37.6667 -83.4825 157° South 165 190 11,600  Level Indianapolis Center
Mon 04:41:35 PM 37.6231 -83.4586 157° South 166 191 11,600  Level Indianapolis Center
Mon 04:42:37 PM 37.5733 -83.4303 156° South 167 192 11,600  Level Indianapolis Center
Mon 04:43:39 PM 37.5300 -83.4072 157° South 167 192 11,600  Level Indianapolis Center
Mon 04:44:41 PM 37.4867 -83.3833 156° South 167 192 11,600  Level Indianapolis Center
Mon 04:45:43 PM 37.4433 -83.3600 157° South 168 193 11,600  Level Indianapolis Center
Mon 04:46:45 PM 37.4006 -83.3358 156° South 168 193 11,600  Level Indianapolis Center
Mon 04:47:47 PM 37.3489 -83.3083 157° South 168 193 11,600  Level Indianapolis Center
Mon 04:48:50 PM 37.3058 -83.2847 156° South 168 193 11,600  Level Indianapolis Center
Mon 04:49:52 PM 37.2617 -83.2606 156° South 169 194 11,600  Level Indianapolis Center
Mon 04:50:54 PM 37.2183 -83.2367 156° South 170 196 11,600  Level Indianapolis Center
Mon 04:51:56 PM 37.1750 -83.2144 158° South 169 194 11,600  Level Indianapolis Center
Mon 04:52:58 PM 37.1239 -83.1867 157° South 170 196 11,600  Level Indianapolis Center
Mon 04:54:00 PM 37.0797 -83.1622 156° South 171 197 11,600  Level Indianapolis Center
Mon 04:55:02 PM 37.0361 -83.1392 157° South 171 197 11,600  Level Indianapolis Center
Mon 04:56:05 PM 36.9925 -83.1153 156° South 171 197 11,600  Level Indianapolis Center
Mon 04:57:07 PM 36.9492 -83.0919 157° South 171 197 11,600  Level Indianapolis Center
Mon 04:58:09 PM 36.8981 -83.0644 157° South 171 197 11,600  Level Indianapolis Center
Mon 04:59:11 PM 36.8544 -83.0408 157° South 171 197 11,600  Level Indianapolis Center
Mon 05:00:13 PM 36.8106 -83.0169 156° South 171 197 11,600 48 Level Indianapolis Center
Mon 05:01:15 PM 36.7656 -82.9939 158° South 172 198 11,700 48 Climbing Indianapolis Center
Mon 05:02:17 PM 36.7142 -82.9656 156° South 172 198 11,700  Level Indianapolis Center
Mon 05:03:20 PM 36.6692 -82.9417 157° South 172 198 11,700  Level Indianapolis Center
Mon 05:04:22 PM 36.6244 -82.9178 157° South 172 198 11,700  Level Indianapolis Center
Mon 05:05:24 PM 36.5800 -82.8936 156° South 173 199 11,700  Level Indianapolis Center
Mon 05:06:26 PM 36.5361 -82.8706 157° South 173 199 11,700  Level Indianapolis Center
Mon 05:07:28 PM 36.4833 -82.8425 157° South 173 199 11,700  Level Indianapolis Center
Mon 05:08:30 PM 36.4389 -82.8183 156° South 173 199 11,700  Level Indianapolis Center
Mon 05:09:31 PM 36.3897 -82.7956 160° South 175 201 11,700  Level Atlanta Center
Mon 05:10:31 PM 36.3458 -82.7706 155° Southeast 170 196 11,700  Level Atlanta Center
Mon 05:11:31 PM 36.3017 -82.7481 158° South 170 196 11,700  Level Atlanta Center
Mon 05:12:31 PM 36.2578 -82.7231 155° Southeast 170 196 11,700  Level Atlanta Center
Mon 05:13:31 PM 36.2117 -82.6981 156° South 170 196 11,700  Level Atlanta Center
Mon 05:14:31 PM 36.1675 -82.6756 158° South 170 196 11,700  Level Atlanta Center
Mon 05:15:31 PM 36.1214 -82.6533 159° South 170 196 11,700  Level Atlanta Center
Mon 05:16:31 PM 36.0772 -82.6283 155° Southeast 170 196 11,700  Level Atlanta Center
Mon 05:17:32 PM 36.0333 -82.6058 157° South 170 196 11,700  Level Atlanta Center
Mon 05:18:31 PM 35.9892 -82.5811 156° South 170 196 11,700  Level Atlanta Center
Mon 05:19:31 PM 35.9431 -82.5589 159° South 175 201 11,700  Level Atlanta Center
Mon 05:20:31 PM 35.8989 -82.5367 158° South 169 194 11,700  Level Atlanta Center
Mon 05:21:31 PM 35.8528 -82.5117 156° South 174 200 11,700  Level Atlanta Center
Mon 05:22:31 PM 35.8064 -82.4844 155° Southeast 174 200 11,700  Level Atlanta Center
Mon 05:23:31 PM 35.7603 -82.4622 159° South 174 200 11,700  Level Atlanta Center
Mon 05:24:31 PM 35.7161 -82.4403 158° South 169 194 11,700  Level Atlanta Center
Mon 05:25:31 PM 35.6719 -82.4156 156° South 174 200 11,700  Level Atlanta Center
Mon 05:26:31 PM 35.6258 -82.3958 161° South 174 200 11,700  Level Atlanta Center
Mon 05:27:31 PM 35.5839 -82.3714 155° Southeast 169 194 11,700  Level Atlanta Center
Mon 05:28:31 PM 35.5375 -82.3492 159° South 174 200 11,700  Level Atlanta Center
Mon 05:29:31 PM 35.4978 -82.3272 156° South 174 200 11,700  Level Atlanta Center
Mon 05:30:31 PM 35.4514 -82.3025 157° South 174 200 11,700  Level Atlanta Center
Mon 05:31:31 PM 35.4072 -82.2806 158° South 174 200 11,700  Level Atlanta Center
Mon 05:32:31 PM 35.3653 -82.2586 157° South 174 200 11,700  Level Atlanta Center
Mon 05:33:31 PM 35.3211 -82.2367 158° South 174 200 11,700  Level Atlanta Center
Mon 05:34:31 PM 35.2792 -82.2147 157° South 174 200 11,700  Level Atlanta Center
Mon 05:35:31 PM 35.2350 -82.1928 158° South 174 200 11,700  Level Atlanta Center
Mon 05:36:31 PM 35.1908 -82.1708 158° South 174 200 11,700 -50 Level Atlanta Center
Mon 05:37:31 PM 35.1467 -82.1489 158° South 169 194 11,600 -50 Descending Atlanta Center
Mon 05:38:32 PM 35.1044 -82.1269 157° South 169 194 11,600  Level Atlanta Center
Mon 05:39:31 PM 35.0603 -82.1028 156° South 169 194 11,600  Level Atlanta Center
Mon 05:40:31 PM 35.0161 -82.0808 158° South 169 194 11,600  Level Atlanta Center
Mon 05:41:31 PM 34.9700 -82.0592 159° South 174 200 11,600  Level Atlanta Center
Mon 05:42:31 PM 34.9300 -82.0372 156° South 169 194 11,600  Level Atlanta Center
Mon 05:43:31 PM 34.8814 -82.0106 156° South 175 201 11,600  Level Atlanta Center
Mon 05:44:31 PM 34.8375 -81.9914 160° South 170 196 11,600  Level Atlanta Center
Mon 05:45:32 PM 34.7953 -81.9672 155° Southeast 170 196 11,600  Level Atlanta Center
Mon 05:46:31 PM 34.7489 -81.9456 159° South 176 203 11,600  Level Atlanta Center
Mon 05:47:31 PM 34.7047 -81.9239 158° South 171 197 11,600  Level Atlanta Center
Mon 05:48:31 PM 34.6606 -81.9022 158° South 171 197 11,600  Level Atlanta Center
Mon 05:49:31 PM 34.6142 -81.8758 155° Southeast 171 197 11,600  Level Atlanta Center
Mon 05:50:31 PM 34.5658 -81.8517 158° South 171 197 11,600  Level Atlanta Center
Mon 05:51:31 PM 34.5214 -81.8278 156° South 171 197 11,600  Level Atlanta Center
Mon 05:52:31 PM 34.4772 -81.8061 158° South 171 197 11,600  Level Atlanta Center
Mon 05:54:52 PM 34.3694 -81.7506 157° South 176 203 11,600  Level Jacksonville Center
Mon 05:55:52 PM 34.3214 -81.7258 157° South 181 208 11,600  Level Jacksonville Center
Mon 05:56:52 PM 34.2753 -81.7039 159° South 181 208 11,600  Level Jacksonville Center
Mon 05:57:52 PM 34.2292 -81.6819 159° South 181 208 11,600  Level Jacksonville Center
Mon 05:58:52 PM 34.1831 -81.6575 156° South 176 203 11,600  Level Jacksonville Center
Mon 05:59:52 PM 34.1369 -81.6331 156° South 176 203 11,600  Level Jacksonville Center
Mon 06:00:52 PM 34.0928 -81.6136 160° South 176 203 11,600  Level Jacksonville Center
Mon 06:01:52 PM 34.0467 -81.5892 156° South 176 203 11,600  Level Jacksonville Center
Mon 06:02:52 PM 34.0006 -81.5650 157° South 171 197 11,600  Level Jacksonville Center
Mon 06:03:52 PM 33.9564 -81.5431 158° South 171 197 11,600  Level Jacksonville Center
Mon 06:04:52 PM 33.9125 -81.5211 157° South 171 197 11,600  Level Jacksonville Center
Mon 06:05:52 PM 33.8664 -81.4994 159° South 171 197 11,600  Level Jacksonville Center
Mon 06:06:52 PM 33.8222 -81.4775 158° South 171 197 11,600  Level Jacksonville Center
Mon 06:07:52 PM 33.7761 -81.4558 159° South 171 197 11,600  Level Jacksonville Center
Mon 06:08:52 PM 33.7342 -81.4342 157° South 171 197 11,600  Level Jacksonville Center
Mon 06:09:52 PM 33.6900 -81.4122 158° South 171 197 11,600  Level Jacksonville Center
Mon 06:10:52 PM 33.6439 -81.3906 159° South 171 197 11,600  Level Jacksonville Center
Mon 06:11:52 PM 33.6039 -81.3664 153° Southeast 171 197 11,600  Level Jacksonville Center
Mon 06:12:52 PM 33.5619 -81.3497 162° South 171 197 11,600  Level Jacksonville Center
Mon 06:13:52 PM 33.5178 -81.3281 158° South 171 197 11,600  Level Jacksonville Center
Mon 06:14:52 PM 33.4758 -81.3089 159° South 171 197 11,600 -100 Level Jacksonville Center
Mon 06:15:52 PM 33.4297 -81.2872 159° South 171 197 11,400 -200 Descending Jacksonville Center
Mon 06:16:52 PM 33.3856 -81.2658 158° South 171 197 11,200 -250 Descending Jacksonville Center
Mon 06:17:52 PM 33.3394 -81.2417 156° South 171 197 10,900 -300 Descending Jacksonville Center
Mon 06:18:52 PM 33.2931 -81.2203 159° South 171 197 10,600 -250 Descending Jacksonville Center
Mon 06:19:52 PM 33.2489 -81.1936 153° Southeast 171 197 10,400 -200 Descending Jacksonville Center
Mon 06:20:52 PM 33.2028 -81.1722 159° South 176 203 10,200 -250 Descending Jacksonville Center
Mon 06:21:52 PM 33.1567 -81.1508 159° South 176 203 9,900 -300 Descending Jacksonville Center
Mon 06:22:52 PM 33.1103 -81.1244 155° Southeast 176 203 9,600 -250 Descending Jacksonville Center
Mon 06:23:52 PM 33.0681 -81.0981 152° Southeast 176 203 9,400 -250 Descending Jacksonville Center
Mon 06:24:52 PM 33.0239 -81.0717 153° Southeast 176 203 9,100 -250 Descending Jacksonville Center
Mon 06:25:52 PM 32.9778 -81.0453 154° Southeast 176 203 8,900 -300 Descending Jacksonville Center
Mon 06:26:52 PM 32.9356 -81.0189 152° Southeast 176 203 8,500 -350 Descending Jacksonville Center
Mon 06:27:52 PM 32.8914 -80.9950 156° South 176 203 8,200 -300 Descending Jacksonville Center
Mon 06:28:52 PM 32.8469 -80.9664 152° Southeast 176 203 7,900 -350 Descending Jacksonville Center
Mon 06:29:52 PM 32.8050 -80.9425 154° Southeast 176 203 7,500 -450 Descending Jacksonville Center
Mon 06:30:52 PM 32.7606 -80.9164 154° Southeast 176 203 7,000 -450 Descending Jacksonville Center
Mon 06:31:52 PM 32.7186 -80.8900 152° Southeast 176 203 6,600 -450 Descending Jacksonville Center
Mon 06:32:52 PM 32.6722 -80.8664 157° South 176 203 6,100 -500 Descending Jacksonville Center
Mon 06:34:00 PM 32.6229 -80.8521 166° South  Level FlightAware Approximate
Mon 06:41:00 PM 32.3210 -80.7438 157° South  Level FlightAware Approximate
Mon 06:42:00 PM 32.2798 -80.7232 157° South  Level FlightAware Approximate
Mon 06:43:00 PM 32.2386 -80.7026 157° South  Level FlightAware Approximate
Mon 06:44:00 PM 32.2244 -80.6975 North  Level Estimated
Mon 06:45:00 PM 32.2244 -80.6975 North  Level Estimated
Mon 06:46:00 PM 32.2244 -80.6975 North  Level Estimated
Mon 06:47:00 PM 32.2244 -80.6975 North  Level Estimated
Mon 06:48:00 PM 32.2244 -80.6975 North  Level Estimated
Mon 06:49:00 PM 32.2244 -80.6975 North  Level Estimated
Mon 06:50:00 PM 32.2244 -80.6975 North  Level Estimated
Mon 06:51:00 PM 32.2244 -80.6975 North  Level Estimated
Mon 06:52:00 PM 32.2244 -80.6975 North  Level Estimated
Mon 06:53:00 PM 32.2244 -80.6975 North  Level Estimated
Mon 06:54:00 PM 32.2244 -80.6975 North  Level Estimated
Mon 06:55:00 PM 32.2244 -80.6975 North  Level Estimated

Login

Don't have an account? Register now (free) for customized features, flight alerts, and more!